sensor_id;sensor_type;location;lat;lon;timestamp;P1;durP1;ratioP1;P2;durP2;ratioP2
26151;SDS011;13907;53.154;8.202;2022-08-07T00:01:23;8.33;;;3.70;;
26151;SDS011;13907;53.154;8.202;2022-08-07T00:03:50;5.30;;;3.23;;
26151;SDS011;13907;53.154;8.202;2022-08-07T00:06:17;12.03;;;4.30;;
26151;SDS011;13907;53.154;8.202;2022-08-07T00:08:44;5.83;;;3.57;;
26151;SDS011;13907;53.154;8.202;2022-08-07T00:11:11;5.30;;;3.50;;
26151;SDS011;13907;53.154;8.202;2022-08-07T00:13:38;5.13;;;3.47;;
26151;SDS011;13907;53.154;8.202;2022-08-07T00:16:10;6.83;;;3.80;;
26151;SDS011;13907;53.154;8.202;2022-08-07T00:18:37;4.90;;;3.33;;
26151;SDS011;13907;53.154;8.202;2022-08-07T00:21:05;5.93;;;3.20;;
26151;SDS011;13907;53.154;8.202;2022-08-07T00:23:33;4.07;;;3.67;;
26151;SDS011;13907;53.154;8.202;2022-08-07T00:26:01;7.77;;;3.27;;
26151;SDS011;13907;53.154;8.202;2022-08-07T00:28:30;6.77;;;3.87;;
26151;SDS011;13907;53.154;8.202;2022-08-07T00:30:57;6.73;;;4.13;;
26151;SDS011;13907;53.154;8.202;2022-08-07T00:33:25;6.23;;;3.60;;
26151;SDS011;13907;53.154;8.202;2022-08-07T00:35:54;6.57;;;3.23;;
26151;SDS011;13907;53.154;8.202;2022-08-07T00:38:21;8.80;;;3.80;;
26151;SDS011;13907;53.154;8.202;2022-08-07T00:40:49;6.07;;;3.90;;
26151;SDS011;13907;53.154;8.202;2022-08-07T00:43:16;6.00;;;4.07;;
26151;SDS011;13907;53.154;8.202;2022-08-07T00:45:43;4.80;;;3.50;;
26151;SDS011;13907;53.154;8.202;2022-08-07T00:48:10;4.50;;;2.87;;
26151;SDS011;13907;53.154;8.202;2022-08-07T00:50:39;5.50;;;4.27;;
26151;SDS011;13907;53.154;8.202;2022-08-07T00:53:06;5.00;;;3.60;;
26151;SDS011;13907;53.154;8.202;2022-08-07T00:55:33;6.03;;;3.47;;
26151;SDS011;13907;53.154;8.202;2022-08-07T00:58:01;5.37;;;3.00;;
26151;SDS011;13907;53.154;8.202;2022-08-07T01:00:28;5.60;;;4.27;;
26151;SDS011;13907;53.154;8.202;2022-08-07T01:02:55;6.30;;;3.57;;
26151;SDS011;13907;53.154;8.202;2022-08-07T01:05:22;5.80;;;3.13;;
26151;SDS011;13907;53.154;8.202;2022-08-07T01:07:51;5.07;;;3.37;;
26151;SDS011;13907;53.154;8.202;2022-08-07T01:10:18;5.40;;;3.57;;
26151;SDS011;13907;53.154;8.202;2022-08-07T01:12:46;4.80;;;3.03;;
26151;SDS011;13907;53.154;8.202;2022-08-07T01:15:13;6.37;;;3.17;;
26151;SDS011;13907;53.154;8.202;2022-08-07T01:17:41;6.40;;;3.70;;
26151;SDS011;13907;53.154;8.202;2022-08-07T01:20:09;7.47;;;3.53;;
26151;SDS011;13907;53.154;8.202;2022-08-07T01:22:38;4.13;;;2.83;;
26151;SDS011;13907;53.154;8.202;2022-08-07T01:25:06;4.93;;;3.00;;
26151;SDS011;13907;53.154;8.202;2022-08-07T01:27:34;4.40;;;3.13;;
26151;SDS011;13907;53.154;8.202;2022-08-07T01:33:03;5.43;;;3.30;;
26151;SDS011;13907;53.154;8.202;2022-08-07T01:35:30;5.97;;;4.00;;
26151;SDS011;13907;53.154;8.202;2022-08-07T01:37:58;3.63;;;2.97;;
26151;SDS011;13907;53.154;8.202;2022-08-07T01:40:25;5.80;;;2.97;;
26151;SDS011;13907;53.154;8.202;2022-08-07T01:42:54;5.47;;;3.40;;
26151;SDS011;13907;53.154;8.202;2022-08-07T01:45:21;4.67;;;2.97;;
26151;SDS011;13907;53.154;8.202;2022-08-07T01:47:48;5.07;;;3.30;;
26151;SDS011;13907;53.154;8.202;2022-08-07T01:50:15;5.93;;;3.30;;
26151;SDS011;13907;53.154;8.202;2022-08-07T01:52:43;6.43;;;3.20;;
26151;SDS011;13907;53.154;8.202;2022-08-07T01:55:12;7.77;;;3.50;;
26151;SDS011;13907;53.154;8.202;2022-08-07T01:57:40;5.67;;;3.30;;
26151;SDS011;13907;53.154;8.202;2022-08-07T02:00:09;3.60;;;2.87;;
26151;SDS011;13907;53.154;8.202;2022-08-07T02:02:39;4.03;;;3.10;;
26151;SDS011;13907;53.154;8.202;2022-08-07T02:05:08;4.87;;;3.13;;
26151;SDS011;13907;53.154;8.202;2022-08-07T02:07:38;5.30;;;2.37;;
26151;SDS011;13907;53.154;8.202;2022-08-07T02:10:05;3.90;;;3.13;;
26151;SDS011;13907;53.154;8.202;2022-08-07T02:12:36;4.00;;;2.73;;
26151;SDS011;13907;53.154;8.202;2022-08-07T02:15:04;5.33;;;3.33;;
26151;SDS011;13907;53.154;8.202;2022-08-07T02:17:32;4.40;;;3.10;;
26151;SDS011;13907;53.154;8.202;2022-08-07T02:20:00;3.80;;;2.47;;
26151;SDS011;13907;53.154;8.202;2022-08-07T02:22:28;5.07;;;3.40;;
26151;SDS011;13907;53.154;8.202;2022-08-07T02:24:56;5.07;;;3.43;;
26151;SDS011;13907;53.154;8.202;2022-08-07T02:27:24;5.37;;;3.50;;
26151;SDS011;13907;53.154;8.202;2022-08-07T02:29:53;3.87;;;2.90;;
26151;SDS011;13907;53.154;8.202;2022-08-07T02:32:21;4.47;;;3.30;;
26151;SDS011;13907;53.154;8.202;2022-08-07T02:34:48;3.80;;;2.93;;
26151;SDS011;13907;53.154;8.202;2022-08-07T02:37:15;8.20;;;4.20;;
26151;SDS011;13907;53.154;8.202;2022-08-07T02:39:43;5.40;;;3.57;;
26151;SDS011;13907;53.154;8.202;2022-08-07T02:42:12;6.97;;;3.30;;
26151;SDS011;13907;53.154;8.202;2022-08-07T02:44:39;5.20;;;3.33;;
26151;SDS011;13907;53.154;8.202;2022-08-07T02:47:08;6.97;;;4.40;;
26151;SDS011;13907;53.154;8.202;2022-08-07T02:49:37;4.27;;;3.23;;
26151;SDS011;13907;53.154;8.202;2022-08-07T02:52:04;4.10;;;3.30;;
26151;SDS011;13907;53.154;8.202;2022-08-07T02:54:34;4.57;;;3.13;;
26151;SDS011;13907;53.154;8.202;2022-08-07T02:57:03;4.80;;;3.20;;
26151;SDS011;13907;53.154;8.202;2022-08-07T03:02:35;4.10;;;2.97;;
26151;SDS011;13907;53.154;8.202;2022-08-07T03:05:03;4.53;;;2.90;;
26151;SDS011;13907;53.154;8.202;2022-08-07T03:07:30;7.90;;;3.87;;
26151;SDS011;13907;53.154;8.202;2022-08-07T03:09:57;5.70;;;3.43;;
26151;SDS011;13907;53.154;8.202;2022-08-07T03:12:24;4.93;;;3.53;;
26151;SDS011;13907;53.154;8.202;2022-08-07T03:14:52;6.73;;;3.40;;
26151;SDS011;13907;53.154;8.202;2022-08-07T03:17:20;5.67;;;3.60;;
26151;SDS011;13907;53.154;8.202;2022-08-07T03:19:49;3.90;;;3.00;;
26151;SDS011;13907;53.154;8.202;2022-08-07T03:22:16;5.03;;;3.53;;
26151;SDS011;13907;53.154;8.202;2022-08-07T03:24:44;7.73;;;3.73;;
26151;SDS011;13907;53.154;8.202;2022-08-07T03:27:11;3.87;;;2.67;;
26151;SDS011;13907;53.154;8.202;2022-08-07T03:29:39;3.90;;;3.10;;
26151;SDS011;13907;53.154;8.202;2022-08-07T03:32:08;5.20;;;3.23;;
26151;SDS011;13907;53.154;8.202;2022-08-07T03:34:36;7.27;;;4.50;;
26151;SDS011;13907;53.154;8.202;2022-08-07T03:37:05;5.43;;;3.30;;
26151;SDS011;13907;53.154;8.202;2022-08-07T03:39:33;5.33;;;3.20;;
26151;SDS011;13907;53.154;8.202;2022-08-07T03:45:05;5.30;;;3.20;;
26151;SDS011;13907;53.154;8.202;2022-08-07T03:47:32;5.97;;;3.30;;
26151;SDS011;13907;53.154;8.202;2022-08-07T03:49:59;6.47;;;3.57;;
26151;SDS011;13907;53.154;8.202;2022-08-07T03:52:29;6.87;;;3.20;;
26151;SDS011;13907;53.154;8.202;2022-08-07T03:54:57;6.37;;;3.20;;
26151;SDS011;13907;53.154;8.202;2022-08-07T03:57:32;3.47;;;2.60;;
26151;SDS011;13907;53.154;8.202;2022-08-07T03:59:59;5.97;;;3.67;;
26151;SDS011;13907;53.154;8.202;2022-08-07T04:02:26;5.70;;;3.83;;
26151;SDS011;13907;53.154;8.202;2022-08-07T04:04:54;4.77;;;3.07;;
26151;SDS011;13907;53.154;8.202;2022-08-07T04:10:25;5.80;;;3.17;;
26151;SDS011;13907;53.154;8.202;2022-08-07T04:12:52;4.50;;;3.27;;
26151;SDS011;13907;53.154;8.202;2022-08-07T04:15:21;5.03;;;3.47;;
26151;SDS011;13907;53.154;8.202;2022-08-07T04:17:48;7.07;;;3.27;;
26151;SDS011;13907;53.154;8.202;2022-08-07T04:20:15;5.10;;;3.63;;
26151;SDS011;13907;53.154;8.202;2022-08-07T04:22:43;4.63;;;3.53;;
26151;SDS011;13907;53.154;8.202;2022-08-07T04:25:10;6.33;;;3.60;;
26151;SDS011;13907;53.154;8.202;2022-08-07T04:27:39;4.23;;;3.13;;
26151;SDS011;13907;53.154;8.202;2022-08-07T04:30:06;6.10;;;3.53;;
26151;SDS011;13907;53.154;8.202;2022-08-07T04:32:34;4.43;;;2.50;;
26151;SDS011;13907;53.154;8.202;2022-08-07T04:35:02;3.90;;;2.90;;
26151;SDS011;13907;53.154;8.202;2022-08-07T04:37:30;6.30;;;3.53;;
26151;SDS011;13907;53.154;8.202;2022-08-07T04:39:57;5.50;;;3.00;;
26151;SDS011;13907;53.154;8.202;2022-08-07T04:42:24;4.87;;;3.47;;
26151;SDS011;13907;53.154;8.202;2022-08-07T04:45:12;6.43;;;3.50;;
26151;SDS011;13907;53.154;8.202;2022-08-07T04:47:41;3.50;;;3.17;;
26151;SDS011;13907;53.154;8.202;2022-08-07T04:50:10;6.00;;;3.97;;
26151;SDS011;13907;53.154;8.202;2022-08-07T04:52:39;3.80;;;2.60;;
26151;SDS011;13907;53.154;8.202;2022-08-07T04:55:10;5.43;;;3.17;;
26151;SDS011;13907;53.154;8.202;2022-08-07T04:57:41;5.53;;;3.80;;
26151;SDS011;13907;53.154;8.202;2022-08-07T05:00:12;5.20;;;2.67;;
26151;SDS011;13907;53.154;8.202;2022-08-07T05:02:42;5.63;;;3.63;;
26151;SDS011;13907;53.154;8.202;2022-08-07T05:05:15;6.77;;;3.87;;
26151;SDS011;13907;53.154;8.202;2022-08-07T05:07:48;4.77;;;3.37;;
26151;SDS011;13907;53.154;8.202;2022-08-07T05:10:20;6.03;;;3.30;;
26151;SDS011;13907;53.154;8.202;2022-08-07T05:12:50;4.83;;;3.73;;
26151;SDS011;13907;53.154;8.202;2022-08-07T05:15:19;6.70;;;2.92;;
26151;SDS011;13907;53.154;8.202;2022-08-07T05:17:50;5.27;;;2.63;;
26151;SDS011;13907;53.154;8.202;2022-08-07T05:20:20;6.63;;;3.42;;
26151;SDS011;13907;53.154;8.202;2022-08-07T05:22:49;6.70;;;3.72;;
26151;SDS011;13907;53.154;8.202;2022-08-07T05:28:21;4.63;;;2.70;;
26151;SDS011;13907;53.154;8.202;2022-08-07T05:30:49;4.97;;;3.10;;
26151;SDS011;13907;53.154;8.202;2022-08-07T05:33:18;6.05;;;3.90;;
26151;SDS011;13907;53.154;8.202;2022-08-07T05:35:45;5.65;;;3.63;;
26151;SDS011;13907;53.154;8.202;2022-08-07T05:38:13;6.18;;;3.78;;
26151;SDS011;13907;53.154;8.202;2022-08-07T05:40:41;5.72;;;3.70;;
26151;SDS011;13907;53.154;8.202;2022-08-07T05:43:08;6.32;;;3.90;;
26151;SDS011;13907;53.154;8.202;2022-08-07T05:45:35;4.65;;;3.35;;
26151;SDS011;13907;53.154;8.202;2022-08-07T05:48:02;4.35;;;3.28;;
26151;SDS011;13907;53.154;8.202;2022-08-07T05:50:31;8.13;;;5.00;;
26151;SDS011;13907;53.154;8.202;2022-08-07T05:52:59;4.85;;;3.85;;
26151;SDS011;13907;53.154;8.202;2022-08-07T05:55:26;7.20;;;3.90;;
26151;SDS011;13907;53.154;8.202;2022-08-07T05:57:54;8.20;;;4.10;;
26151;SDS011;13907;53.154;8.202;2022-08-07T06:00:22;4.80;;;3.10;;
26151;SDS011;13907;53.154;8.202;2022-08-07T06:02:50;10.50;;;4.60;;
26151;SDS011;13907;53.154;8.202;2022-08-07T06:05:19;5.88;;;3.60;;
26151;SDS011;13907;53.154;8.202;2022-08-07T06:07:47;6.47;;;3.60;;
26151;SDS011;13907;53.154;8.202;2022-08-07T06:10:15;5.85;;;3.97;;
26151;SDS011;13907;53.154;8.202;2022-08-07T06:12:42;7.40;;;4.28;;
26151;SDS011;13907;53.154;8.202;2022-08-07T06:15:10;3.40;;;2.45;;
26151;SDS011;13907;53.154;8.202;2022-08-07T06:17:39;8.07;;;3.50;;
26151;SDS011;13907;53.154;8.202;2022-08-07T06:20:07;5.20;;;3.30;;
26151;SDS011;13907;53.154;8.202;2022-08-07T06:22:35;6.78;;;2.83;;
26151;SDS011;13907;53.154;8.202;2022-08-07T06:25:05;4.35;;;2.83;;
26151;SDS011;13907;53.154;8.202;2022-08-07T06:27:32;7.28;;;3.75;;
26151;SDS011;13907;53.154;8.202;2022-08-07T06:29:59;7.35;;;3.45;;
26151;SDS011;13907;53.154;8.202;2022-08-07T06:32:27;3.47;;;2.65;;
26151;SDS011;13907;53.154;8.202;2022-08-07T06:34:54;3.97;;;2.80;;
26151;SDS011;13907;53.154;8.202;2022-08-07T06:37:21;4.93;;;3.20;;
26151;SDS011;13907;53.154;8.202;2022-08-07T06:39:48;5.05;;;3.03;;
26151;SDS011;13907;53.154;8.202;2022-08-07T06:42:19;4.97;;;3.55;;
26151;SDS011;13907;53.154;8.202;2022-08-07T06:44:47;4.35;;;2.83;;
26151;SDS011;13907;53.154;8.202;2022-08-07T06:47:15;2.95;;;2.30;;
26151;SDS011;13907;53.154;8.202;2022-08-07T06:49:42;3.20;;;2.40;;
26151;SDS011;13907;53.154;8.202;2022-08-07T06:52:10;6.65;;;2.92;;
26151;SDS011;13907;53.154;8.202;2022-08-07T06:54:38;3.90;;;2.30;;
26151;SDS011;13907;53.154;8.202;2022-08-07T06:57:06;4.60;;;2.35;;
26151;SDS011;13907;53.154;8.202;2022-08-07T06:59:36;3.25;;;2.40;;
26151;SDS011;13907;53.154;8.202;2022-08-07T07:02:05;3.55;;;2.55;;
26151;SDS011;13907;53.154;8.202;2022-08-07T07:04:32;4.50;;;2.70;;
26151;SDS011;13907;53.154;8.202;2022-08-07T07:07:00;5.82;;;2.65;;
26151;SDS011;13907;53.154;8.202;2022-08-07T07:09:31;4.88;;;2.45;;
26151;SDS011;13907;53.154;8.202;2022-08-07T07:12:03;3.70;;;2.65;;
26151;SDS011;13907;53.154;8.202;2022-08-07T07:14:44;2.95;;;2.03;;
26151;SDS011;13907;53.154;8.202;2022-08-07T07:17:14;3.65;;;2.17;;
26151;SDS011;13907;53.154;8.202;2022-08-07T07:19:45;3.35;;;2.13;;
26151;SDS011;13907;53.154;8.202;2022-08-07T07:22:13;3.10;;;2.00;;
26151;SDS011;13907;53.154;8.202;2022-08-07T07:24:41;4.63;;;2.80;;
26151;SDS011;13907;53.154;8.202;2022-08-07T07:27:09;5.20;;;2.47;;
26151;SDS011;13907;53.154;8.202;2022-08-07T07:29:39;5.40;;;3.22;;
26151;SDS011;13907;53.154;8.202;2022-08-07T07:32:08;4.70;;;2.67;;
26151;SDS011;13907;53.154;8.202;2022-08-07T07:34:37;5.82;;;3.20;;
26151;SDS011;13907;53.154;8.202;2022-08-07T07:37:04;5.25;;;2.25;;
26151;SDS011;13907;53.154;8.202;2022-08-07T07:39:32;5.32;;;3.30;;
26151;SDS011;13907;53.154;8.202;2022-08-07T07:42:00;4.45;;;2.65;;
26151;SDS011;13907;53.154;8.202;2022-08-07T07:44:28;3.72;;;2.75;;
26151;SDS011;13907;53.154;8.202;2022-08-07T07:46:57;3.20;;;2.38;;
26151;SDS011;13907;53.154;8.202;2022-08-07T07:49:26;4.05;;;2.70;;
26151;SDS011;13907;53.154;8.202;2022-08-07T07:51:54;4.22;;;3.05;;
26151;SDS011;13907;53.154;8.202;2022-08-07T07:54:21;3.72;;;2.47;;
26151;SDS011;13907;53.154;8.202;2022-08-07T07:56:49;2.58;;;2.13;;
26151;SDS011;13907;53.154;8.202;2022-08-07T07:59:18;3.30;;;2.17;;
26151;SDS011;13907;53.154;8.202;2022-08-07T08:01:46;7.25;;;2.60;;
26151;SDS011;13907;53.154;8.202;2022-08-07T08:04:15;3.58;;;2.20;;
26151;SDS011;13907;53.154;8.202;2022-08-07T08:06:43;3.30;;;2.42;;
26151;SDS011;13907;53.154;8.202;2022-08-07T08:09:11;2.30;;;1.85;;
26151;SDS011;13907;53.154;8.202;2022-08-07T08:11:40;4.75;;;2.28;;
26151;SDS011;13907;53.154;8.202;2022-08-07T08:14:08;3.13;;;2.17;;
26151;SDS011;13907;53.154;8.202;2022-08-07T08:16:37;2.25;;;1.77;;
26151;SDS011;13907;53.154;8.202;2022-08-07T08:19:05;2.75;;;2.17;;
26151;SDS011;13907;53.154;8.202;2022-08-07T08:21:34;2.63;;;1.55;;
26151;SDS011;13907;53.154;8.202;2022-08-07T08:24:19;4.18;;;1.95;;
26151;SDS011;13907;53.154;8.202;2022-08-07T08:27:04;1.70;;;1.52;;
26151;SDS011;13907;53.154;8.202;2022-08-07T08:29:35;2.90;;;1.88;;
26151;SDS011;13907;53.154;8.202;2022-08-07T08:32:04;1.77;;;1.50;;
26151;SDS011;13907;53.154;8.202;2022-08-07T08:34:31;3.85;;;1.58;;
26151;SDS011;13907;53.154;8.202;2022-08-07T08:37:00;3.00;;;1.80;;
26151;SDS011;13907;53.154;8.202;2022-08-07T08:39:28;2.20;;;1.75;;
26151;SDS011;13907;53.154;8.202;2022-08-07T08:41:56;2.13;;;1.90;;
26151;SDS011;13907;53.154;8.202;2022-08-07T08:44:26;3.38;;;2.15;;
26151;SDS011;13907;53.154;8.202;2022-08-07T08:46:59;3.55;;;1.77;;
26151;SDS011;13907;53.154;8.202;2022-08-07T08:49:31;4.47;;;2.15;;
26151;SDS011;13907;53.154;8.202;2022-08-07T08:52:02;1.92;;;1.58;;
26151;SDS011;13907;53.154;8.202;2022-08-07T08:54:32;3.15;;;2.00;;
26151;SDS011;13907;53.154;8.202;2022-08-07T08:57:02;3.40;;;2.22;;
26151;SDS011;13907;53.154;8.202;2022-08-07T08:59:32;3.45;;;2.35;;
26151;SDS011;13907;53.154;8.202;2022-08-07T09:02:04;3.50;;;2.08;;
26151;SDS011;13907;53.154;8.202;2022-08-07T09:04:35;4.95;;;2.10;;
26151;SDS011;13907;53.154;8.202;2022-08-07T09:07:09;2.75;;;1.90;;
26151;SDS011;13907;53.154;8.202;2022-08-07T09:09:43;2.05;;;1.73;;
26151;SDS011;13907;53.154;8.202;2022-08-07T09:12:18;3.38;;;2.30;;
26151;SDS011;13907;53.154;8.202;2022-08-07T09:14:51;2.08;;;1.77;;
26151;SDS011;13907;53.154;8.202;2022-08-07T09:17:26;2.72;;;2.00;;
26151;SDS011;13907;53.154;8.202;2022-08-07T09:19:56;3.45;;;1.73;;
26151;SDS011;13907;53.154;8.202;2022-08-07T09:22:32;2.28;;;1.75;;
26151;SDS011;13907;53.154;8.202;2022-08-07T09:25:06;2.83;;;2.13;;
26151;SDS011;13907;53.154;8.202;2022-08-07T09:27:37;2.10;;;1.88;;
26151;SDS011;13907;53.154;8.202;2022-08-07T09:30:07;2.97;;;1.80;;
26151;SDS011;13907;53.154;8.202;2022-08-07T09:32:43;1.95;;;1.65;;
26151;SDS011;13907;53.154;8.202;2022-08-07T09:35:13;3.65;;;1.95;;
26151;SDS011;13907;53.154;8.202;2022-08-07T09:37:48;5.95;;;1.83;;
26151;SDS011;13907;53.154;8.202;2022-08-07T09:40:19;2.80;;;1.92;;
26151;SDS011;13907;53.154;8.202;2022-08-07T09:42:49;2.78;;;1.73;;
26151;SDS011;13907;53.154;8.202;2022-08-07T09:45:19;2.58;;;2.00;;
26151;SDS011;13907;53.154;8.202;2022-08-07T09:47:50;2.50;;;1.80;;
26151;SDS011;13907;53.154;8.202;2022-08-07T09:50:24;2.75;;;1.90;;
26151;SDS011;13907;53.154;8.202;2022-08-07T09:52:57;2.90;;;1.98;;
26151;SDS011;13907;53.154;8.202;2022-08-07T09:55:29;2.47;;;1.73;;
26151;SDS011;13907;53.154;8.202;2022-08-07T09:58:08;1.55;;;1.20;;
26151;SDS011;13907;53.154;8.202;2022-08-07T10:00:49;4.10;;;2.00;;
26151;SDS011;13907;53.154;8.202;2022-08-07T10:03:26;2.17;;;1.95;;
26151;SDS011;13907;53.154;8.202;2022-08-07T10:06:11;4.03;;;1.70;;
26151;SDS011;13907;53.154;8.202;2022-08-07T10:08:51;2.67;;;1.75;;
26151;SDS011;13907;53.154;8.202;2022-08-07T10:11:27;3.75;;;1.40;;
26151;SDS011;13907;53.154;8.202;2022-08-07T10:14:03;4.93;;;1.98;;
26151;SDS011;13907;53.154;8.202;2022-08-07T10:16:40;3.22;;;2.00;;
26151;SDS011;13907;53.154;8.202;2022-08-07T10:19:21;2.95;;;1.67;;
26151;SDS011;13907;53.154;8.202;2022-08-07T10:21:52;2.53;;;1.67;;
26151;SDS011;13907;53.154;8.202;2022-08-07T10:24:27;3.42;;;1.90;;
26151;SDS011;13907;53.154;8.202;2022-08-07T10:27:02;3.10;;;1.55;;
26151;SDS011;13907;53.154;8.202;2022-08-07T10:29:43;2.97;;;1.92;;
26151;SDS011;13907;53.154;8.202;2022-08-07T10:32:17;4.43;;;2.13;;
26151;SDS011;13907;53.154;8.202;2022-08-07T10:34:48;3.05;;;1.52;;
26151;SDS011;13907;53.154;8.202;2022-08-07T10:37:25;4.47;;;2.15;;
26151;SDS011;13907;53.154;8.202;2022-08-07T10:39:57;3.60;;;1.88;;
26151;SDS011;13907;53.154;8.202;2022-08-07T10:42:29;3.70;;;1.85;;
26151;SDS011;13907;53.154;8.202;2022-08-07T10:45:00;2.08;;;1.45;;
26151;SDS011;13907;53.154;8.202;2022-08-07T10:47:30;2.95;;;1.90;;
26151;SDS011;13907;53.154;8.202;2022-08-07T10:50:02;3.40;;;1.75;;
26151;SDS011;13907;53.154;8.202;2022-08-07T10:52:32;4.88;;;2.17;;
26151;SDS011;13907;53.154;8.202;2022-08-07T10:55:06;2.20;;;1.70;;
26151;SDS011;13907;53.154;8.202;2022-08-07T10:57:38;2.92;;;1.75;;
26151;SDS011;13907;53.154;8.202;2022-08-07T11:00:09;2.50;;;1.95;;
26151;SDS011;13907;53.154;8.202;2022-08-07T11:02:38;2.65;;;1.83;;
26151;SDS011;13907;53.154;8.202;2022-08-07T11:05:16;1.55;;;1.27;;
26151;SDS011;13907;53.154;8.202;2022-08-07T11:07:46;2.50;;;1.63;;
26151;SDS011;13907;53.154;8.202;2022-08-07T11:10:18;1.50;;;1.40;;
26151;SDS011;13907;53.154;8.202;2022-08-07T11:12:51;2.00;;;1.38;;
26151;SDS011;13907;53.154;8.202;2022-08-07T11:15:21;2.65;;;1.20;;
26151;SDS011;13907;53.154;8.202;2022-08-07T11:17:51;2.55;;;1.33;;
26151;SDS011;13907;53.154;8.202;2022-08-07T11:20:21;4.47;;;2.20;;
26151;SDS011;13907;53.154;8.202;2022-08-07T11:22:50;1.48;;;1.33;;
26151;SDS011;13907;53.154;8.202;2022-08-07T11:25:22;1.40;;;1.05;;
26151;SDS011;13907;53.154;8.202;2022-08-07T11:27:50;4.07;;;1.52;;
26151;SDS011;13907;53.154;8.202;2022-08-07T11:30:21;2.45;;;1.33;;
26151;SDS011;13907;53.154;8.202;2022-08-07T11:32:50;1.60;;;1.35;;
26151;SDS011;13907;53.154;8.202;2022-08-07T11:35:22;1.88;;;1.45;;
26151;SDS011;13907;53.154;8.202;2022-08-07T11:38:00;3.13;;;1.80;;
26151;SDS011;13907;53.154;8.202;2022-08-07T11:40:34;1.38;;;1.15;;
26151;SDS011;13907;53.154;8.202;2022-08-07T11:43:08;2.67;;;1.05;;
26151;SDS011;13907;53.154;8.202;2022-08-07T11:45:43;2.55;;;1.50;;
26151;SDS011;13907;53.154;8.202;2022-08-07T11:48:15;1.70;;;1.20;;
26151;SDS011;13907;53.154;8.202;2022-08-07T11:50:46;2.22;;;1.50;;
26151;SDS011;13907;53.154;8.202;2022-08-07T11:53:18;1.88;;;1.23;;
26151;SDS011;13907;53.154;8.202;2022-08-07T11:56:00;2.45;;;1.52;;
26151;SDS011;13907;53.154;8.202;2022-08-07T11:58:32;1.27;;;1.00;;
26151;SDS011;13907;53.154;8.202;2022-08-07T12:01:08;2.00;;;1.30;;
26151;SDS011;13907;53.154;8.202;2022-08-07T12:03:45;2.38;;;1.33;;
26151;SDS011;13907;53.154;8.202;2022-08-07T12:06:21;2.58;;;1.23;;
26151;SDS011;13907;53.154;8.202;2022-08-07T12:08:49;2.03;;;1.38;;
26151;SDS011;13907;53.154;8.202;2022-08-07T12:11:21;1.52;;;1.35;;
26151;SDS011;13907;53.154;8.202;2022-08-07T12:13:49;3.05;;;1.38;;
26151;SDS011;13907;53.154;8.202;2022-08-07T12:16:19;2.97;;;1.52;;
26151;SDS011;13907;53.154;8.202;2022-08-07T12:18:48;2.38;;;1.02;;
26151;SDS011;13907;53.154;8.202;2022-08-07T12:21:19;1.92;;;1.35;;
26151;SDS011;13907;53.154;8.202;2022-08-07T12:23:53;2.38;;;1.52;;
26151;SDS011;13907;53.154;8.202;2022-08-07T12:26:25;1.58;;;1.10;;
26151;SDS011;13907;53.154;8.202;2022-08-07T12:28:56;1.98;;;1.20;;
26151;SDS011;13907;53.154;8.202;2022-08-07T12:31:26;1.92;;;1.45;;
26151;SDS011;13907;53.154;8.202;2022-08-07T12:33:54;2.47;;;1.27;;
26151;SDS011;13907;53.154;8.202;2022-08-07T12:36:22;2.00;;;1.48;;
26151;SDS011;13907;53.154;8.202;2022-08-07T12:38:50;1.90;;;1.05;;
26151;SDS011;13907;53.154;8.202;2022-08-07T12:41:18;2.75;;;1.33;;
26151;SDS011;13907;53.154;8.202;2022-08-07T12:43:47;1.98;;;1.40;;
26151;SDS011;13907;53.154;8.202;2022-08-07T12:46:19;1.83;;;1.40;;
26151;SDS011;13907;53.154;8.202;2022-08-07T12:48:54;2.33;;;1.30;;
26151;SDS011;13907;53.154;8.202;2022-08-07T12:51:25;4.72;;;1.48;;
26151;SDS011;13907;53.154;8.202;2022-08-07T12:53:54;2.60;;;1.27;;
26151;SDS011;13907;53.154;8.202;2022-08-07T12:56:24;2.42;;;1.48;;
26151;SDS011;13907;53.154;8.202;2022-08-07T12:58:53;1.88;;;1.30;;
26151;SDS011;13907;53.154;8.202;2022-08-07T13:01:27;2.40;;;1.60;;
26151;SDS011;13907;53.154;8.202;2022-08-07T13:04:02;2.60;;;1.45;;
26151;SDS011;13907;53.154;8.202;2022-08-07T13:06:37;2.33;;;1.40;;
26151;SDS011;13907;53.154;8.202;2022-08-07T13:09:10;1.45;;;1.35;;
26151;SDS011;13907;53.154;8.202;2022-08-07T13:11:40;1.90;;;1.50;;
26151;SDS011;13907;53.154;8.202;2022-08-07T13:14:18;1.65;;;1.05;;
26151;SDS011;13907;53.154;8.202;2022-08-07T13:16:47;1.80;;;1.33;;
26151;SDS011;13907;53.154;8.202;2022-08-07T13:19:20;1.55;;;1.20;;
26151;SDS011;13907;53.154;8.202;2022-08-07T13:21:51;1.45;;;1.27;;
26151;SDS011;13907;53.154;8.202;2022-08-07T13:24:22;2.30;;;1.40;;
26151;SDS011;13907;53.154;8.202;2022-08-07T13:26:50;1.35;;;0.93;;
26151;SDS011;13907;53.154;8.202;2022-08-07T13:29:22;1.60;;;1.08;;
26151;SDS011;13907;53.154;8.202;2022-08-07T13:31:51;1.80;;;0.98;;
26151;SDS011;13907;53.154;8.202;2022-08-07T13:34:20;1.42;;;1.02;;
26151;SDS011;13907;53.154;8.202;2022-08-07T13:36:50;1.30;;;1.10;;
26151;SDS011;13907;53.154;8.202;2022-08-07T13:39:21;1.20;;;1.02;;
26151;SDS011;13907;53.154;8.202;2022-08-07T13:41:49;1.17;;;0.98;;
26151;SDS011;13907;53.154;8.202;2022-08-07T13:44:18;2.40;;;1.00;;
26151;SDS011;13907;53.154;8.202;2022-08-07T13:46:51;1.75;;;0.98;;
26151;SDS011;13907;53.154;8.202;2022-08-07T13:49:21;2.08;;;0.98;;
26151;SDS011;13907;53.154;8.202;2022-08-07T13:51:48;0.90;;;0.55;;
26151;SDS011;13907;53.154;8.202;2022-08-07T13:54:17;1.42;;;1.17;;
26151;SDS011;13907;53.154;8.202;2022-08-07T13:56:45;1.10;;;1.00;;
26151;SDS011;13907;53.154;8.202;2022-08-07T13:59:14;0.80;;;0.70;;
26151;SDS011;13907;53.154;8.202;2022-08-07T14:01:44;2.28;;;0.88;;
26151;SDS011;13907;53.154;8.202;2022-08-07T14:04:15;1.85;;;1.00;;
26151;SDS011;13907;53.154;8.202;2022-08-07T14:06:46;2.28;;;1.30;;
26151;SDS011;13907;53.154;8.202;2022-08-07T14:09:17;1.45;;;1.35;;
26151;SDS011;13907;53.154;8.202;2022-08-07T14:11:48;1.63;;;1.23;;
26151;SDS011;13907;53.154;8.202;2022-08-07T14:14:15;1.67;;;1.35;;
26151;SDS011;13907;53.154;8.202;2022-08-07T14:16:44;2.20;;;1.30;;
26151;SDS011;13907;53.154;8.202;2022-08-07T14:19:13;3.58;;;1.17;;
26151;SDS011;13907;53.154;8.202;2022-08-07T14:21:43;2.08;;;1.50;;
26151;SDS011;13907;53.154;8.202;2022-08-07T14:24:12;7.78;;;1.50;;
26151;SDS011;13907;53.154;8.202;2022-08-07T14:26:41;1.52;;;1.23;;
26151;SDS011;13907;53.154;8.202;2022-08-07T14:29:10;1.52;;;1.15;;
26151;SDS011;13907;53.154;8.202;2022-08-07T14:31:38;2.70;;;1.40;;
26151;SDS011;13907;53.154;8.202;2022-08-07T14:34:06;4.13;;;1.52;;
26151;SDS011;13907;53.154;8.202;2022-08-07T14:36:33;1.17;;;1.05;;
26151;SDS011;13907;53.154;8.202;2022-08-07T14:39:02;1.38;;;1.00;;
26151;SDS011;13907;53.154;8.202;2022-08-07T14:41:30;1.15;;;0.90;;
26151;SDS011;13907;53.154;8.202;2022-08-07T14:43:58;1.27;;;0.80;;
26151;SDS011;13907;53.154;8.202;2022-08-07T14:46:27;1.30;;;0.98;;
26151;SDS011;13907;53.154;8.202;2022-08-07T14:48:55;3.20;;;1.27;;
26151;SDS011;13907;53.154;8.202;2022-08-07T14:51:23;1.48;;;0.90;;
26151;SDS011;13907;53.154;8.202;2022-08-07T14:53:52;1.63;;;0.80;;
26151;SDS011;13907;53.154;8.202;2022-08-07T14:56:21;1.00;;;0.90;;
26151;SDS011;13907;53.154;8.202;2022-08-07T14:58:50;2.95;;;1.48;;
26151;SDS011;13907;53.154;8.202;2022-08-07T15:01:17;1.42;;;1.10;;
26151;SDS011;13907;53.154;8.202;2022-08-07T15:03:45;0.85;;;0.82;;
26151;SDS011;13907;53.154;8.202;2022-08-07T15:06:12;1.08;;;0.90;;
26151;SDS011;13907;53.154;8.202;2022-08-07T15:08:40;1.17;;;0.93;;
26151;SDS011;13907;53.154;8.202;2022-08-07T15:11:12;0.70;;;0.70;;
26151;SDS011;13907;53.154;8.202;2022-08-07T15:13:46;2.60;;;0.95;;
26151;SDS011;13907;53.154;8.202;2022-08-07T15:16:14;0.95;;;0.70;;
26151;SDS011;13907;53.154;8.202;2022-08-07T15:18:43;2.47;;;1.23;;